Brownsville, Tennessee
Current Conditions -  °F | °C
As of 7:53 PM on Sunday 25 Jan 2015 (Local Time) from KMKL Reporting Station
Overcast Overcast  
Wind Chill: 40°   Ceiling: 2300
Heat Index: 46°   Visibility: 10mi
Dew Point: 39°   Wind: 14mph
Humidity: 76%   Direction: 290°WNW
Pressure: 29.8"   Gusts: NA
Location:  35.6°N, 89.26°W
Report Text: KMKL 260153Z AUTO 29012KT 10SM BKN023 OVC035 08/04 A2980 RMK AO2 SLP093 T00780039
Loading
Personal Weather Stations






























Interactive Weather Map New forecast layout! Learn more

10-Day Weather Forecast

Advertisements
Track Severe Weather on mobile